RYR1SR LEBL-LEMH
Flight info
| Callsign | RYR1SR |
|---|---|
| Flight time | 0h 35m |
| Altitude | 19000 |
| Route | DUNES Q700 SARGO |
| Aircraft | B738/M-SDE2E3FGHIRWXY/LB1 |
Departure
| Time | 2026-04-28 19:52 |
|---|---|
| Airport | Josep Tarradellas Barcelona-El Prat Airport (LEBL) |
Arrival
| Time | 2026-04-28 20:28 |
|---|---|
| Airport | Menorca Airport (LEMH) |
| Time | Latitude | Longitude | Altitude | Speed | Heading |
|---|---|---|---|---|---|
| 2026-04-28 19:16 | 41.30596 | 2.08467 | 23 ft | 0 kts | 65° |
| 2026-04-28 19:43 | 41.30599 | 2.08476 | 26 ft | 6 kts | 64° |
| 2026-04-28 19:43 | 41.30602 | 2.08544 | 23 ft | 6 kts | 126° |
| 2026-04-28 19:44 | 41.30565 | 2.08576 | 22 ft | 7 kts | 124° |
| 2026-04-28 19:44 | 41.30559 | 2.08665 | 21 ft | 14 kts | 88° |
| 2026-04-28 19:44 | 41.30525 | 2.08775 | 20 ft | 16 kts | 155° |
| 2026-04-28 19:44 | 41.30427 | 2.08861 | 17 ft | 18 kts | 145° |
| 2026-04-28 19:45 | 41.30345 | 2.08768 | 16 ft | 18 kts | 245° |
| 2026-04-28 19:45 | 41.30295 | 2.08620 | 17 ft | 18 kts | 245° |
| 2026-04-28 19:45 | 41.30239 | 2.08461 | 16 ft | 20 kts | 245° |
| 2026-04-28 19:45 | 41.30184 | 2.08300 | 17 ft | 19 kts | 246° |
| 2026-04-28 19:46 | 41.30131 | 2.08144 | 15 ft | 18 kts | 245° |
| 2026-04-28 19:46 | 41.30076 | 2.07999 | 15 ft | 16 kts | 223° |
| 2026-04-28 19:46 | 41.29983 | 2.08026 | 17 ft | 14 kts | 155° |
| 2026-04-28 19:46 | 41.29890 | 2.08073 | 19 ft | 15 kts | 159° |
| 2026-04-28 19:47 | 41.29780 | 2.08130 | 18 ft | 18 kts | 155° |
| 2026-04-28 19:47 | 41.29660 | 2.08203 | 17 ft | 19 kts | 156° |
| 2026-04-28 19:47 | 41.29540 | 2.08274 | 16 ft | 19 kts | 155° |
| 2026-04-28 19:47 | 41.29424 | 2.08344 | 18 ft | 18 kts | 155° |
| 2026-04-28 19:48 | 41.29314 | 2.08410 | 19 ft | 17 kts | 155° |
| 2026-04-28 19:48 | 41.29202 | 2.08446 | 19 ft | 17 kts | 194° |
| 2026-04-28 19:48 | 41.29092 | 2.08397 | 18 ft | 16 kts | 199° |
| 2026-04-28 19:48 | 41.28989 | 2.08350 | 17 ft | 16 kts | 198° |
| 2026-04-28 19:49 | 41.28889 | 2.08305 | 16 ft | 15 kts | 199° |
| 2026-04-28 19:49 | 41.28792 | 2.08261 | 16 ft | 14 kts | 199° |
| 2026-04-28 19:49 | 41.28700 | 2.08218 | 16 ft | 14 kts | 204° |
| 2026-04-28 19:49 | 41.28648 | 2.08109 | 17 ft | 15 kts | 245° |
| 2026-04-28 19:50 | 41.28549 | 2.07816 | 16 ft | 19 kts | 246° |
| 2026-04-28 19:50 | 41.28492 | 2.07653 | 17 ft | 19 kts | 245° |
| 2026-04-28 19:50 | 41.28402 | 2.07552 | 16 ft | 8 kts | 199° |
| 2026-04-28 19:51 | 41.28348 | 2.07526 | 15 ft | 9 kts | 200° |
| 2026-04-28 19:51 | 41.28301 | 2.07468 | 17 ft | 10 kts | 244° |
| 2026-04-28 19:51 | 41.28248 | 2.07436 | 18 ft | 10 kts | 133° |
| 2026-04-28 19:51 | 41.28275 | 2.07566 | 19 ft | 37 kts | 67° |
| 2026-04-28 19:52 | 41.28490 | 2.08192 | 22 ft | 109 kts | 65° |
| 2026-04-28 19:52 | 41.28891 | 2.09341 | 105 ft | 159 kts | 64° |
| 2026-04-28 19:52 | 41.29357 | 2.10725 | 791 ft | 163 kts | 69° |
| 2026-04-28 19:52 | 41.29620 | 2.12183 | 1514 ft | 172 kts | 88° |
| 2026-04-28 19:53 | 41.29610 | 2.13819 | 2316 ft | 174 kts | 95° |
| 2026-04-28 19:53 | 41.29442 | 2.15500 | 2790 ft | 200 kts | 101° |
| 2026-04-28 19:53 | 41.29196 | 2.17358 | 3327 ft | 208 kts | 102° |
| 2026-04-28 19:53 | 41.28946 | 2.19289 | 3896 ft | 215 kts | 101° |
| 2026-04-28 19:54 | 41.28700 | 2.21263 | 4594 ft | 217 kts | 101° |
| 2026-04-28 19:54 | 41.28458 | 2.23265 | 5355 ft | 221 kts | 101° |
| 2026-04-28 19:54 | 41.28217 | 2.25283 | 6170 ft | 222 kts | 101° |
| 2026-04-28 19:54 | 41.27974 | 2.27322 | 6910 ft | 225 kts | 101° |
| 2026-04-28 19:55 | 41.27728 | 2.29392 | 7632 ft | 228 kts | 101° |
| 2026-04-28 19:55 | 41.27360 | 2.31450 | 8305 ft | 233 kts | 115° |
| 2026-04-28 19:55 | 41.26579 | 2.33459 | 8564 ft | 258 kts | 122° |
| 2026-04-28 19:55 | 41.25600 | 2.35584 | 8952 ft | 277 kts | 124° |
| 2026-04-28 19:56 | 41.24560 | 2.37790 | 9661 ft | 284 kts | 124° |
| 2026-04-28 19:56 | 41.23507 | 2.40039 | 10339 ft | 293 kts | 124° |
| 2026-04-28 19:56 | 41.22391 | 2.42440 | 10530 ft | 318 kts | 123° |
| 2026-04-28 19:56 | 41.21204 | 2.45015 | 10951 ft | 333 kts | 123° |
| 2026-04-28 19:57 | 41.19993 | 2.47668 | 11607 ft | 339 kts | 123° |
| 2026-04-28 19:57 | 41.18764 | 2.50373 | 12338 ft | 344 kts | 123° |
| 2026-04-28 19:57 | 41.17520 | 2.53120 | 13063 ft | 351 kts | 123° |
| 2026-04-28 19:57 | 41.16254 | 2.55920 | 13782 ft | 357 kts | 123° |
| 2026-04-28 19:58 | 41.14971 | 2.58757 | 14553 ft | 359 kts | 123° |
| 2026-04-28 19:58 | 41.13692 | 2.61587 | 15494 ft | 356 kts | 123° |
| 2026-04-28 19:58 | 41.12423 | 2.64394 | 16439 ft | 354 kts | 124° |
| 2026-04-28 19:58 | 41.11158 | 2.67187 | 17359 ft | 353 kts | 124° |
| 2026-04-28 19:59 | 41.09911 | 2.69938 | 18212 ft | 353 kts | 124° |
| 2026-04-28 19:59 | 41.08640 | 2.72736 | 18699 ft | 352 kts | 124° |
| 2026-04-28 19:59 | 41.07383 | 2.75504 | 18974 ft | 353 kts | 124° |
| 2026-04-28 19:59 | 41.06106 | 2.78307 | 18978 ft | 356 kts | 124° |
| 2026-04-28 20:00 | 41.04832 | 2.81105 | 18985 ft | 353 kts | 124° |
| 2026-04-28 20:00 | 41.03570 | 2.83876 | 18980 ft | 350 kts | 124° |
| 2026-04-28 20:00 | 41.02316 | 2.86627 | 18986 ft | 348 kts | 124° |
| 2026-04-28 20:00 | 41.01065 | 2.89368 | 18993 ft | 347 kts | 124° |
| 2026-04-28 20:01 | 40.99815 | 2.92103 | 19003 ft | 348 kts | 124° |
| 2026-04-28 20:01 | 40.98561 | 2.94844 | 18994 ft | 349 kts | 124° |
| 2026-04-28 20:01 | 40.97303 | 2.97592 | 19000 ft | 350 kts | 124° |
| 2026-04-28 20:01 | 40.96039 | 3.00350 | 18996 ft | 351 kts | 124° |
| 2026-04-28 20:02 | 40.94771 | 3.03114 | 18999 ft | 352 kts | 124° |
| 2026-04-28 20:02 | 40.93497 | 3.05889 | 18996 ft | 353 kts | 124° |
| 2026-04-28 20:02 | 40.92221 | 3.08667 | 18985 ft | 354 kts | 124° |
| 2026-04-28 20:02 | 40.90942 | 3.11447 | 18993 ft | 354 kts | 124° |
| 2026-04-28 20:03 | 40.89660 | 3.14233 | 18994 ft | 355 kts | 124° |
| 2026-04-28 20:03 | 40.88377 | 3.17019 | 18984 ft | 355 kts | 124° |
| 2026-04-28 20:03 | 40.87096 | 3.19798 | 18993 ft | 354 kts | 124° |
| 2026-04-28 20:03 | 40.85815 | 3.22575 | 18987 ft | 354 kts | 124° |
| 2026-04-28 20:04 | 40.84550 | 3.25314 | 18980 ft | 353 kts | 124° |
| 2026-04-28 20:04 | 40.83271 | 3.28082 | 18992 ft | 353 kts | 124° |
| 2026-04-28 20:04 | 40.81991 | 3.30848 | 18987 ft | 353 kts | 124° |
| 2026-04-28 20:04 | 40.80714 | 3.33605 | 18981 ft | 352 kts | 124° |
| 2026-04-28 20:05 | 40.79437 | 3.36360 | 18986 ft | 352 kts | 124° |
| 2026-04-28 20:05 | 40.78158 | 3.39116 | 18991 ft | 352 kts | 124° |
| 2026-04-28 20:05 | 40.76881 | 3.41865 | 18991 ft | 351 kts | 124° |
| 2026-04-28 20:05 | 40.75605 | 3.44611 | 18993 ft | 351 kts | 124° |
| 2026-04-28 20:06 | 40.74327 | 3.47359 | 18990 ft | 352 kts | 124° |
| 2026-04-28 20:06 | 40.73046 | 3.50108 | 18986 ft | 352 kts | 124° |
| 2026-04-28 20:06 | 40.71765 | 3.52859 | 18990 ft | 352 kts | 124° |
| 2026-04-28 20:06 | 40.70484 | 3.55604 | 18990 ft | 352 kts | 124° |
| 2026-04-28 20:07 | 40.69200 | 3.58354 | 18994 ft | 352 kts | 124° |
| 2026-04-28 20:07 | 40.68350 | 3.60174 | 18993 ft | 352 kts | 124° |
| 2026-04-28 20:07 | 40.66630 | 3.63852 | 18990 ft | 351 kts | 124° |
| 2026-04-28 20:07 | 40.65367 | 3.66554 | 18961 ft | 342 kts | 124° |
| 2026-04-28 20:08 | 40.64130 | 3.69196 | 18985 ft | 338 kts | 124° |
| 2026-04-28 20:08 | 40.63313 | 3.70939 | 18989 ft | 337 kts | 124° |
| 2026-04-28 20:08 | 40.62078 | 3.73571 | 18997 ft | 338 kts | 124° |
| 2026-04-28 20:08 | 40.60433 | 3.77070 | 18730 ft | 339 kts | 124° |
| 2026-04-28 20:09 | 40.59194 | 3.79706 | 18460 ft | 339 kts | 124° |
| 2026-04-28 20:09 | 40.57953 | 3.82344 | 18119 ft | 338 kts | 124° |
| 2026-04-28 20:09 | 40.57118 | 3.84116 | 17876 ft | 337 kts | 124° |
| 2026-04-28 20:09 | 40.55492 | 3.87571 | 17413 ft | 334 kts | 124° |
| 2026-04-28 20:10 | 40.54272 | 3.90157 | 17074 ft | 332 kts | 124° |
| 2026-04-28 20:10 | 40.53452 | 3.91895 | 16830 ft | 331 kts | 124° |
| 2026-04-28 20:10 | 40.52242 | 3.94455 | 16518 ft | 329 kts | 124° |
| 2026-04-28 20:10 | 40.50962 | 3.96873 | 16177 ft | 324 kts | 136° |
| 2026-04-28 20:11 | 40.49127 | 3.98459 | 15889 ft | 313 kts | 164° |
| 2026-04-28 20:11 | 40.47025 | 3.98977 | 15613 ft | 306 kts | 183° |
| 2026-04-28 20:11 | 40.44913 | 3.98831 | 15350 ft | 304 kts | 188° |
| 2026-04-28 20:11 | 40.42805 | 3.98554 | 15064 ft | 304 kts | 188° |
| 2026-04-28 20:12 | 40.40698 | 3.98314 | 14778 ft | 304 kts | 187° |
| 2026-04-28 20:12 | 40.38591 | 3.98122 | 14497 ft | 303 kts | 186° |
| 2026-04-28 20:12 | 40.36489 | 3.97944 | 14220 ft | 302 kts | 186° |
| 2026-04-28 20:12 | 40.34394 | 3.97767 | 13939 ft | 301 kts | 186° |
| 2026-04-28 20:13 | 40.32306 | 3.97588 | 13642 ft | 300 kts | 186° |
| 2026-04-28 20:13 | 40.30228 | 3.97407 | 13336 ft | 299 kts | 186° |
| 2026-04-28 20:13 | 40.28159 | 3.97225 | 13050 ft | 297 kts | 186° |
| 2026-04-28 20:13 | 40.26104 | 3.97043 | 12765 ft | 295 kts | 186° |
| 2026-04-28 20:14 | 40.24064 | 3.96861 | 12488 ft | 293 kts | 186° |
| 2026-04-28 20:14 | 40.22037 | 3.96680 | 12218 ft | 291 kts | 186° |
| 2026-04-28 20:14 | 40.20022 | 3.96500 | 11949 ft | 289 kts | 186° |
| 2026-04-28 20:14 | 40.18022 | 3.96321 | 11685 ft | 287 kts | 186° |
| 2026-04-28 20:15 | 40.16032 | 3.96143 | 11418 ft | 286 kts | 186° |
| 2026-04-28 20:15 | 40.14056 | 3.95966 | 11154 ft | 284 kts | 186° |
| 2026-04-28 20:15 | 40.12087 | 3.95790 | 10889 ft | 283 kts | 186° |
| 2026-04-28 20:15 | 40.10129 | 3.95615 | 10633 ft | 282 kts | 186° |
| 2026-04-28 20:16 | 40.08204 | 3.95443 | 10385 ft | 281 kts | 186° |
| 2026-04-28 20:16 | 40.06256 | 3.95269 | 10149 ft | 281 kts | 186° |
| 2026-04-28 20:16 | 40.04310 | 3.95095 | 9918 ft | 281 kts | 186° |
| 2026-04-28 20:16 | 40.02369 | 3.94922 | 9651 ft | 278 kts | 186° |
| 2026-04-28 20:17 | 40.00447 | 3.94751 | 9384 ft | 275 kts | 186° |
| 2026-04-28 20:17 | 39.98550 | 3.94582 | 9126 ft | 272 kts | 186° |
| 2026-04-28 20:17 | 39.96672 | 3.94414 | 8870 ft | 269 kts | 186° |
| 2026-04-28 20:17 | 39.94815 | 3.94249 | 8613 ft | 266 kts | 186° |
| 2026-04-28 20:18 | 39.92974 | 3.94085 | 8362 ft | 264 kts | 185° |
| 2026-04-28 20:18 | 39.91147 | 3.93923 | 8094 ft | 262 kts | 185° |
| 2026-04-28 20:18 | 39.89336 | 3.93725 | 7859 ft | 260 kts | 188° |
| 2026-04-28 20:18 | 39.87544 | 3.93473 | 7663 ft | 256 kts | 186° |
| 2026-04-28 20:19 | 39.85775 | 3.93373 | 7453 ft | 254 kts | 181° |
| 2026-04-28 20:19 | 39.84018 | 3.93494 | 7210 ft | 253 kts | 175° |
| 2026-04-28 20:19 | 39.82283 | 3.93836 | 6955 ft | 252 kts | 169° |
| 2026-04-28 20:19 | 39.80582 | 3.94373 | 6704 ft | 251 kts | 165° |
| 2026-04-28 20:20 | 39.78927 | 3.95079 | 6448 ft | 250 kts | 160° |
| 2026-04-28 20:20 | 39.77320 | 3.95946 | 6198 ft | 249 kts | 156° |
| 2026-04-28 20:20 | 39.75781 | 3.96965 | 5937 ft | 248 kts | 151° |
| 2026-04-28 20:20 | 39.74316 | 3.98134 | 5675 ft | 247 kts | 147° |
| 2026-04-28 20:21 | 39.72933 | 3.99446 | 5418 ft | 246 kts | 142° |
| 2026-04-28 20:21 | 39.71638 | 4.00891 | 5158 ft | 245 kts | 138° |
| 2026-04-28 20:21 | 39.70437 | 4.02457 | 4895 ft | 245 kts | 134° |
| 2026-04-28 20:21 | 39.69334 | 4.04138 | 4629 ft | 244 kts | 129° |
| 2026-04-28 20:22 | 39.68338 | 4.05919 | 4361 ft | 243 kts | 124° |
| 2026-04-28 20:22 | 39.67466 | 4.07764 | 4098 ft | 243 kts | 120° |
| 2026-04-28 20:22 | 39.66697 | 4.09714 | 3824 ft | 242 kts | 116° |
| 2026-04-28 20:22 | 39.66061 | 4.11690 | 3718 ft | 229 kts | 111° |
| 2026-04-28 20:23 | 39.65580 | 4.13571 | 3602 ft | 211 kts | 103° |
| 2026-04-28 20:23 | 39.65807 | 4.15335 | 3491 ft | 198 kts | 58° |
| 2026-04-28 20:23 | 39.66863 | 4.16423 | 3454 ft | 194 kts | 32° |
| 2026-04-28 20:23 | 39.68076 | 4.17220 | 3351 ft | 196 kts | 30° |
| 2026-04-28 20:24 | 39.69329 | 4.17938 | 3233 ft | 198 kts | 23° |
| 2026-04-28 20:24 | 39.70624 | 4.18466 | 3102 ft | 193 kts | 19° |
| 2026-04-28 20:24 | 39.71917 | 4.18882 | 2874 ft | 189 kts | 15° |
| 2026-04-28 20:24 | 39.73201 | 4.19175 | 2622 ft | 186 kts | 13° |
| 2026-04-28 20:25 | 39.74462 | 4.19433 | 2374 ft | 181 kts | 13° |
| 2026-04-28 20:25 | 39.75679 | 4.19681 | 2180 ft | 173 kts | 14° |
| 2026-04-28 20:25 | 39.76866 | 4.19926 | 1921 ft | 171 kts | 14° |
| 2026-04-28 20:25 | 39.78020 | 4.20164 | 1689 ft | 162 kts | 14° |
| 2026-04-28 20:26 | 39.79101 | 4.20388 | 1472 ft | 154 kts | 14° |
| 2026-04-28 20:26 | 39.80161 | 4.20608 | 1282 ft | 156 kts | 14° |
| 2026-04-28 20:26 | 39.81232 | 4.20830 | 1069 ft | 155 kts | 13° |
| 2026-04-28 20:26 | 39.82286 | 4.21055 | 894 ft | 152 kts | 14° |
| 2026-04-28 20:27 | 39.83312 | 4.21290 | 675 ft | 146 kts | 12° |
| 2026-04-28 20:27 | 39.84307 | 4.21468 | 487 ft | 143 kts | 12° |
| 2026-04-28 20:27 | 39.85274 | 4.21654 | 309 ft | 137 kts | 13° |
| 2026-04-28 20:27 | 39.86098 | 4.21826 | 301 ft | 96 kts | 10° |
| 2026-04-28 20:28 | 39.86528 | 4.21920 | 304 ft | 21 kts | 13° |
| 2026-04-28 20:28 | 39.86572 | 4.21998 | 299 ft | 9 kts | 92° |
| 2026-04-28 20:28 | 39.86568 | 4.22038 | 301 ft | 1 kts | 99° |
| 2026-04-28 20:28 | 39.86564 | 4.22067 | 299 ft | 5 kts | 100° |
| 2026-04-28 20:29 | 39.86555 | 4.22129 | 295 ft | 9 kts | 101° |
| 2026-04-28 20:29 | 39.86543 | 4.22214 | 291 ft | 11 kts | 99° |
| 2026-04-28 20:29 | 39.86520 | 4.22315 | 292 ft | 12 kts | 144° |
| 2026-04-28 20:29 | 39.86435 | 4.22309 | 287 ft | 12 kts | 188° |
| 2026-04-28 20:30 | 39.86351 | 4.22293 | 287 ft | 12 kts | 188° |
| 2026-04-28 20:30 | 39.86308 | 4.22283 | 287 ft | 6 kts | 200° |
| 2026-04-28 20:30 | 39.86301 | 4.22232 | 289 ft | 6 kts | 277° |
| 2026-04-28 20:30 | 39.86312 | 4.22203 | 293 ft | 3 kts | 324° |
| 2026-04-28 20:31 | 39.86330 | 4.22216 | 291 ft | 4 kts | 60° |
| 2026-04-28 20:31 | 39.86331 | 4.22220 | 291 ft | 0 kts | 72° |
| 2026-04-28 20:31 | 39.86332 | 4.22224 | 291 ft | 0 kts | 67° |